createdAt,value
2023-04-17T00:01:44.238Z,6.70
2023-04-17T00:04:13.274Z,6.70
2023-04-17T00:06:43.496Z,6.70
2023-04-17T00:09:12.100Z,6.70
2023-04-17T00:11:39.525Z,6.70
2023-04-17T00:14:06.789Z,6.70
2023-04-17T00:16:33.869Z,6.70
2023-04-17T00:19:00.958Z,6.70
2023-04-17T00:21:30.077Z,6.70
2023-04-17T00:23:57.258Z,6.70
2023-04-17T00:26:25.018Z,6.70
2023-04-17T00:28:52.123Z,6.70
2023-04-17T00:31:19.419Z,6.60
2023-04-17T00:33:46.770Z,6.70
2023-04-17T00:36:15.529Z,6.60
2023-04-17T00:38:42.754Z,6.60
2023-04-17T00:41:09.994Z,6.60
2023-04-17T00:43:37.388Z,6.60
2023-04-17T00:46:05.857Z,6.60
2023-04-17T00:48:35.083Z,6.60
2023-04-17T00:51:03.415Z,6.60
2023-04-17T00:53:34.197Z,6.60
2023-04-17T00:56:03.597Z,6.60
2023-04-17T00:58:31.083Z,6.60
2023-04-17T01:00:58.305Z,6.60
2023-04-17T01:03:25.810Z,6.60
2023-04-17T01:05:52.977Z,6.60
2023-04-17T01:08:20.130Z,6.60
2023-04-17T01:10:47.114Z,6.60
2023-04-17T01:13:14.256Z,6.60
2023-04-17T01:15:41.351Z,6.60
2023-04-17T01:18:08.620Z,6.60
2023-04-17T01:20:36.246Z,6.60
2023-04-17T01:23:03.208Z,6.60
2023-04-17T01:25:30.146Z,6.60
2023-04-17T01:27:57.363Z,6.60
2023-04-17T01:30:24.446Z,6.60
2023-04-17T01:32:54.924Z,6.60
2023-04-17T01:35:22.287Z,6.60
2023-04-17T01:37:49.324Z,6.60
2023-04-17T01:40:16.454Z,6.60
2023-04-17T01:42:43.510Z,6.60
2023-04-17T01:45:11.155Z,6.60
2023-04-17T01:47:38.198Z,6.50
2023-04-17T01:50:05.968Z,6.50
2023-04-17T01:52:32.948Z,6.60
2023-04-17T01:54:59.883Z,6.60
2023-04-17T01:57:28.241Z,6.60
2023-04-17T01:59:55.217Z,6.60
2023-04-17T02:02:22.269Z,6.60
2023-04-17T02:04:49.420Z,6.60
2023-04-17T02:07:16.811Z,6.60
2023-04-17T02:09:43.774Z,6.50
2023-04-17T02:12:10.812Z,6.50
2023-04-17T02:14:37.790Z,6.50
2023-04-17T02:17:05.040Z,6.50
2023-04-17T02:19:32.027Z,6.50
2023-04-17T02:21:59.050Z,6.50
2023-04-17T02:24:26.287Z,6.50
2023-04-17T02:26:53.221Z,6.50
2023-04-17T02:29:20.178Z,6.50
2023-04-17T02:31:47.217Z,6.50
2023-04-17T02:34:14.306Z,6.50
2023-04-17T02:36:41.500Z,6.50
2023-04-17T02:39:08.524Z,6.50
2023-04-17T02:41:35.578Z,6.50
2023-04-17T02:44:03.185Z,6.50
2023-04-17T02:46:30.157Z,6.40
2023-04-17T02:48:57.150Z,6.40
2023-04-17T02:51:24.254Z,6.40
2023-04-17T02:53:51.228Z,6.40
2023-04-17T02:56:18.223Z,6.40
2023-04-17T02:58:45.631Z,6.50
2023-04-17T03:01:12.803Z,6.40
2023-04-17T03:03:42.060Z,6.50
2023-04-17T03:06:10.072Z,6.40
2023-04-17T03:08:38.777Z,6.40
2023-04-17T03:11:06.728Z,6.40
2023-04-17T03:13:37.161Z,6.50
2023-04-17T03:16:05.132Z,6.40
2023-04-17T03:18:32.402Z,6.50
2023-04-17T03:20:59.410Z,6.50
2023-04-17T03:23:26.380Z,6.50
2023-04-17T03:25:53.453Z,6.50
2023-04-17T03:28:22.095Z,6.50
2023-04-17T03:30:49.548Z,6.40
2023-04-17T03:33:16.949Z,6.40
2023-04-17T03:35:46.342Z,6.40
2023-04-17T03:38:13.408Z,6.40
2023-04-17T03:40:40.800Z,6.40
2023-04-17T03:43:07.836Z,6.40
2023-04-17T03:45:35.133Z,6.40
2023-04-17T03:48:02.565Z,6.40
2023-04-17T03:50:29.752Z,6.40
2023-04-17T03:52:56.748Z,6.40
2023-04-17T03:55:23.795Z,6.40
2023-04-17T03:57:51.829Z,6.40
2023-04-17T04:00:19.127Z,6.40
2023-04-17T04:02:46.857Z,6.40
2023-04-17T04:05:14.314Z,6.30
2023-04-17T04:07:41.719Z,6.30
2023-04-17T04:10:09.159Z,6.30
2023-04-17T04:12:36.181Z,6.30
2023-04-17T04:15:03.410Z,6.30
2023-04-17T04:17:30.496Z,6.40
2023-04-17T04:19:57.485Z,6.40
2023-04-17T04:22:24.481Z,6.40
2023-04-17T04:24:53.882Z,6.40
2023-04-17T04:27:22.833Z,6.40
2023-04-17T04:29:49.924Z,6.40
2023-04-17T04:32:17.358Z,6.40
2023-04-17T04:34:44.838Z,6.30
2023-04-17T04:37:15.766Z,6.40
2023-04-17T04:39:43.387Z,6.30
2023-04-17T04:42:10.541Z,6.30
2023-04-17T04:44:37.746Z,6.40
2023-04-17T04:47:04.985Z,6.40
2023-04-17T04:49:32.141Z,6.40
2023-04-17T04:51:59.164Z,6.40
2023-04-17T04:54:26.102Z,6.40
2023-04-17T04:56:53.110Z,6.40
2023-04-17T04:59:20.092Z,6.40
2023-04-17T05:01:47.956Z,6.40
2023-04-17T05:04:15.207Z,6.40
2023-04-17T05:06:42.329Z,6.40
2023-04-17T05:09:09.480Z,6.40
2023-04-17T05:11:36.701Z,6.40
2023-04-17T05:14:03.711Z,6.40
2023-04-17T05:16:31.115Z,6.40
2023-04-17T05:18:58.155Z,6.40
2023-04-17T05:21:25.446Z,6.40
2023-04-17T05:23:52.444Z,6.40
2023-04-17T05:26:22.106Z,6.40
2023-04-17T05:28:49.106Z,6.40
2023-04-17T05:31:17.013Z,6.40
2023-04-17T05:33:44.078Z,6.50
2023-04-17T05:36:11.338Z,6.50
2023-04-17T05:38:38.294Z,6.50
2023-04-17T05:41:07.640Z,6.50
2023-04-17T05:43:34.718Z,6.50
2023-04-17T05:46:02.023Z,6.60
2023-04-17T05:48:30.236Z,6.60
2023-04-17T05:50:57.377Z,6.60
2023-04-17T05:53:24.434Z,6.60
2023-04-17T05:55:51.469Z,6.60
2023-04-17T05:58:23.690Z,6.60
2023-04-17T06:00:52.555Z,6.60
2023-04-17T06:03:21.172Z,6.60
2023-04-17T06:05:48.454Z,6.70
2023-04-17T06:08:15.663Z,6.60
2023-04-17T06:10:45.822Z,6.70
2023-04-17T06:13:13.527Z,6.70
2023-04-17T06:15:40.641Z,6.70
2023-04-17T06:18:07.697Z,6.70
2023-04-17T06:20:34.896Z,6.70
2023-04-17T06:23:01.901Z,6.80
2023-04-17T06:25:28.941Z,6.80
2023-04-17T06:27:55.971Z,6.90
2023-04-17T06:30:22.922Z,6.90
2023-04-17T06:32:49.970Z,7.00
2023-04-17T06:35:17.013Z,7.10
2023-04-17T06:37:44.052Z,7.20
2023-04-17T06:40:12.558Z,7.30
2023-04-17T06:42:39.592Z,7.30
2023-04-17T06:45:07.222Z,7.40
2023-04-17T06:47:34.258Z,7.60
2023-04-17T06:50:01.274Z,7.80
2023-04-17T06:52:28.324Z,8.00
2023-04-17T06:54:56.145Z,8.10
2023-04-17T06:57:23.275Z,8.30
2023-04-17T06:59:50.204Z,8.40
2023-04-17T07:02:18.337Z,8.50
2023-04-17T07:04:45.578Z,8.60
2023-04-17T07:07:12.570Z,8.70
2023-04-17T07:09:39.573Z,8.60
2023-04-17T07:12:06.650Z,8.60
2023-04-17T07:14:33.757Z,8.50
2023-04-17T07:17:00.859Z,8.50
2023-04-17T07:19:27.800Z,8.30
2023-04-17T07:21:54.778Z,8.20
2023-04-17T07:24:22.166Z,8.20
2023-04-17T07:26:49.751Z,8.20
2023-04-17T07:29:16.862Z,8.10
2023-04-17T07:31:44.357Z,8.10
2023-04-17T07:34:11.588Z,8.20
2023-04-17T07:36:38.638Z,8.40
2023-04-17T07:39:07.333Z,8.60
2023-04-17T07:41:34.275Z,8.70
2023-04-17T07:44:03.616Z,8.80
2023-04-17T07:46:30.830Z,9.00
2023-04-17T07:48:58.574Z,9.10
2023-04-17T07:51:26.233Z,9.20
2023-04-17T07:53:53.377Z,9.20
2023-04-17T07:56:20.379Z,9.20
2023-04-17T07:58:47.341Z,9.30
2023-04-17T08:01:15.845Z,9.40
2023-04-17T08:03:44.928Z,9.40
2023-04-17T08:06:12.274Z,9.60
2023-04-17T08:08:39.290Z,9.70
2023-04-17T08:11:06.371Z,9.80
2023-04-17T08:13:33.486Z,9.90
2023-04-17T08:16:00.444Z,10.10
2023-04-17T08:18:27.556Z,10.20
2023-04-17T08:20:54.717Z,10.10
2023-04-17T08:23:21.747Z,9.90
2023-04-17T08:25:48.726Z,9.70
2023-04-17T08:28:15.716Z,9.50
2023-04-17T08:30:42.715Z,9.30
2023-04-17T08:33:10.123Z,9.20
2023-04-17T08:35:37.257Z,9.10
2023-04-17T08:38:04.215Z,9.20
2023-04-17T08:40:31.697Z,9.20
2023-04-17T08:43:01.211Z,9.40
2023-04-17T08:45:28.365Z,9.50
2023-04-17T08:47:55.555Z,9.50
2023-04-17T08:50:23.776Z,9.70
2023-04-17T08:52:52.750Z,9.80
2023-04-17T08:55:22.598Z,9.80
2023-04-17T08:57:55.914Z,9.80
2023-04-17T09:00:39.740Z,9.60
2023-04-17T09:03:08.851Z,9.50
2023-04-17T09:05:39.115Z,9.50
2023-04-17T09:08:11.396Z,9.50
2023-04-17T09:10:49.744Z,9.60
2023-04-17T09:13:18.990Z,9.60
2023-04-17T09:15:47.671Z,9.50
2023-04-17T09:18:28.098Z,9.70
2023-04-17T09:20:55.137Z,10.00
2023-04-17T09:23:23.509Z,10.40
2023-04-17T09:26:08.054Z,10.60
2023-04-17T09:28:39.612Z,11.00
2023-04-17T09:31:18.945Z,11.10
2023-04-17T09:34:12.074Z,11.10
2023-04-17T09:36:44.007Z,11.20
2023-04-17T09:39:24.037Z,11.20
2023-04-17T09:42:02.792Z,11.60
2023-04-17T09:44:31.287Z,12.00
2023-04-17T09:47:00.507Z,12.30
2023-04-17T09:49:42.471Z,12.50
2023-04-17T09:52:09.684Z,12.30
2023-04-17T09:54:40.125Z,12.30
2023-04-17T09:57:08.887Z,12.50
2023-04-17T09:59:45.522Z,12.40
2023-04-17T10:02:18.075Z,12.20
2023-04-17T10:04:46.887Z,11.80
2023-04-17T10:07:14.374Z,11.40
2023-04-17T10:09:42.358Z,11.10
2023-04-17T10:12:15.493Z,10.90
2023-04-17T10:14:51.495Z,10.70
2023-04-17T10:17:31.896Z,10.50
2023-04-17T10:20:20.315Z,10.30
2023-04-17T10:22:54.305Z,10.10
2023-04-17T10:25:26.311Z,10.00
2023-04-17T10:28:03.222Z,9.80
2023-04-17T10:30:55.818Z,9.80
2023-04-17T10:33:25.824Z,9.80
2023-04-17T10:35:53.248Z,9.70
2023-04-17T10:38:35.093Z,9.70
2023-04-17T10:41:09.595Z,9.90
2023-04-17T10:43:41.012Z,9.90
2023-04-17T10:46:14.310Z,10.00
2023-04-17T10:48:47.492Z,10.00
2023-04-17T10:51:20.543Z,10.00
2023-04-17T10:53:49.238Z,10.20
2023-04-17T10:56:24.647Z,10.40
2023-04-17T10:59:08.393Z,10.50
2023-04-17T11:01:38.284Z,10.70
2023-04-17T11:04:06.327Z,10.90
2023-04-17T11:06:38.206Z,11.00
2023-04-17T11:09:09.421Z,11.10
2023-04-17T11:11:44.470Z,11.40
2023-04-17T11:14:14.989Z,11.70
2023-04-17T11:16:44.353Z,12.20
2023-04-17T11:19:16.863Z,12.60
2023-04-17T11:21:54.467Z,12.70
2023-04-17T11:24:25.648Z,12.90
2023-04-17T11:26:52.974Z,13.10
2023-04-17T11:29:22.280Z,13.30
2023-04-17T11:31:52.452Z,14.00
2023-04-17T11:34:20.549Z,14.50
2023-04-17T11:36:57.463Z,14.50
2023-04-17T11:39:26.800Z,14.30
2023-04-17T11:41:54.041Z,14.10
2023-04-17T11:44:21.264Z,13.80
2023-04-17T11:46:56.807Z,13.50
2023-04-17T11:49:27.872Z,13.80
2023-04-17T11:52:01.197Z,14.10
2023-04-17T11:54:36.991Z,14.40
2023-04-17T11:57:06.336Z,14.50
2023-04-17T11:59:35.844Z,14.60
2023-04-17T12:02:03.947Z,15.10
2023-04-17T12:04:35.148Z,15.50
2023-04-17T12:07:04.121Z,15.90
2023-04-17T12:09:32.073Z,16.10
2023-04-17T12:12:01.405Z,15.90
2023-04-17T12:14:28.360Z,15.60
2023-04-17T12:16:55.589Z,15.30
2023-04-17T12:19:22.574Z,15.00
2023-04-17T12:21:49.680Z,14.50
2023-04-17T12:24:18.253Z,14.30
2023-04-17T12:26:47.244Z,14.20
2023-04-17T12:29:15.654Z,14.00
2023-04-17T12:31:43.213Z,13.90
2023-04-17T12:34:10.534Z,13.80
2023-04-17T12:36:38.133Z,13.70
2023-04-17T12:39:06.417Z,13.60
2023-04-17T12:41:33.418Z,13.80
2023-04-17T12:44:03.219Z,13.70
2023-04-17T12:46:31.184Z,13.80
2023-04-17T12:49:00.739Z,13.90
2023-04-17T12:51:28.112Z,14.00
2023-04-17T12:53:58.334Z,14.20
2023-04-17T12:56:25.364Z,14.70
2023-04-17T12:58:52.362Z,14.80
2023-04-17T13:01:19.348Z,14.50
2023-04-17T13:03:46.469Z,14.20
2023-04-17T13:06:16.080Z,13.90
2023-04-17T13:08:43.086Z,13.60
2023-04-17T13:11:10.044Z,13.30
2023-04-17T13:13:37.058Z,12.90
2023-04-17T13:16:04.257Z,12.50
2023-04-17T13:18:31.227Z,12.10
2023-04-17T13:20:58.437Z,11.50
2023-04-17T13:23:25.548Z,10.60
2023-04-17T13:25:52.662Z,9.10
2023-04-17T13:28:19.652Z,8.20
2023-04-17T13:30:46.750Z,7.50
2023-04-17T13:33:13.762Z,7.00
2023-04-17T13:35:41.251Z,6.80
2023-04-17T13:38:08.239Z,6.70
2023-04-17T13:40:36.430Z,6.60
2023-04-17T13:43:06.063Z,6.60
2023-04-17T13:45:33.058Z,6.50
2023-04-17T13:48:00.500Z,6.50
2023-04-17T13:50:27.602Z,6.50
2023-04-17T13:52:54.521Z,6.50
2023-04-17T13:55:21.531Z,6.50
2023-04-17T13:57:48.506Z,6.40
2023-04-17T14:00:16.085Z,6.30
2023-04-17T14:02:43.259Z,6.40
2023-04-17T14:05:10.507Z,6.40
2023-04-17T14:07:38.209Z,6.40
2023-04-17T14:10:05.659Z,6.50
2023-04-17T14:12:32.686Z,6.50
2023-04-17T14:14:59.633Z,6.50
2023-04-17T14:17:26.716Z,6.50
2023-04-17T14:19:53.780Z,6.50
2023-04-17T14:22:20.726Z,6.60
2023-04-17T14:24:47.712Z,6.60
2023-04-17T14:27:14.650Z,6.60
2023-04-17T14:29:41.699Z,6.70
2023-04-17T14:32:08.715Z,6.90
2023-04-17T14:34:35.705Z,7.00
2023-04-17T14:37:02.693Z,7.20
2023-04-17T14:39:31.530Z,7.40
2023-04-17T14:42:00.556Z,7.60
2023-04-17T14:44:29.055Z,7.70
2023-04-17T14:46:57.126Z,7.80
2023-04-17T14:49:24.348Z,7.80
2023-04-17T14:51:51.272Z,7.80
2023-04-17T14:54:18.290Z,7.70
2023-04-17T14:56:45.549Z,7.70
2023-04-17T14:59:12.593Z,7.80
2023-04-17T15:01:39.754Z,7.80
2023-04-17T15:04:06.971Z,8.10
2023-04-17T15:06:34.231Z,8.60
2023-04-17T15:09:01.220Z,9.30
2023-04-17T15:11:28.225Z,10.00
2023-04-17T15:13:55.266Z,10.50
2023-04-17T15:16:22.235Z,10.50
2023-04-17T15:18:49.688Z,10.10
2023-04-17T15:21:17.057Z,9.60
2023-04-17T15:23:44.005Z,9.30
2023-04-17T15:26:11.039Z,9.00
2023-04-17T15:28:39.050Z,8.80
2023-04-17T15:31:07.021Z,8.70
2023-04-17T15:33:34.322Z,8.60
2023-04-17T15:36:01.661Z,8.50
2023-04-17T15:38:28.736Z,8.50
2023-04-17T15:40:56.000Z,8.40
2023-04-17T15:43:23.341Z,8.30
2023-04-17T15:45:50.961Z,8.30
2023-04-17T15:48:18.164Z,8.20
2023-04-17T15:50:45.202Z,8.20
2023-04-17T15:53:13.272Z,8.20
2023-04-17T15:55:41.454Z,8.20
2023-04-17T15:58:08.707Z,8.20
2023-04-17T16:00:35.808Z,8.20
2023-04-17T16:03:02.977Z,8.20
2023-04-17T16:05:30.668Z,8.10
2023-04-17T16:07:57.809Z,8.00
2023-04-17T16:10:25.164Z,7.80
2023-04-17T16:12:52.131Z,7.70
2023-04-17T16:15:19.379Z,7.60
2023-04-17T16:17:48.713Z,7.60
2023-04-17T16:20:16.304Z,7.60
2023-04-17T16:22:43.306Z,7.50
2023-04-17T16:25:13.500Z,7.60
2023-04-17T16:27:41.091Z,7.60
2023-04-17T16:30:09.556Z,7.60
2023-04-17T16:32:36.676Z,7.60
2023-04-17T16:35:03.751Z,7.60
2023-04-17T16:37:31.018Z,7.60
2023-04-17T16:40:03.204Z,7.60
2023-04-17T16:42:30.858Z,7.60
2023-04-17T16:44:57.979Z,7.60
2023-04-17T16:47:25.079Z,7.60
2023-04-17T16:49:52.105Z,7.50
2023-04-17T16:52:19.055Z,7.50
2023-04-17T16:54:46.045Z,7.50
2023-04-17T16:57:13.022Z,7.50
2023-04-17T16:59:40.042Z,7.60
2023-04-17T17:02:07.351Z,7.60
2023-04-17T17:04:34.392Z,7.60
2023-04-17T17:07:01.563Z,7.60
2023-04-17T17:09:28.799Z,7.60
2023-04-17T17:11:56.910Z,7.60
2023-04-17T17:14:23.853Z,7.60
2023-04-17T17:16:50.969Z,7.50
2023-04-17T17:19:18.005Z,7.50
2023-04-17T17:21:44.986Z,7.50
2023-04-17T17:24:12.034Z,7.40
2023-04-17T17:26:39.108Z,7.40
2023-04-17T17:29:06.051Z,7.40
2023-04-17T17:31:36.159Z,7.30
2023-04-17T17:34:16.591Z,7.30
2023-04-17T17:36:49.585Z,7.30
2023-04-17T17:39:16.758Z,7.20
2023-04-17T17:41:45.826Z,7.20
2023-04-17T17:44:13.862Z,7.10
2023-04-17T17:46:41.118Z,7.10
2023-04-17T17:49:08.201Z,7.00
2023-04-17T17:51:35.239Z,7.00
2023-04-17T17:54:02.287Z,7.00
2023-04-17T17:56:29.443Z,7.00
2023-04-17T17:58:56.444Z,7.10
2023-04-17T18:01:24.968Z,7.10
2023-04-17T18:03:53.390Z,7.10
2023-04-17T18:06:21.247Z,7.10
2023-04-17T18:08:48.561Z,7.00
2023-04-17T18:11:15.699Z,7.00
2023-04-17T18:13:42.682Z,7.00
2023-04-17T18:16:09.998Z,7.00
2023-04-17T18:18:37.063Z,7.00
2023-04-17T18:21:07.890Z,6.90
2023-04-17T18:23:34.961Z,6.90
2023-04-17T18:26:03.470Z,6.90
2023-04-17T18:28:30.797Z,6.90
2023-04-17T18:30:57.891Z,6.90
2023-04-17T18:33:24.931Z,6.90
2023-04-17T18:35:59.414Z,6.90
2023-04-17T18:38:26.363Z,6.90
2023-04-17T18:41:01.169Z,6.90
2023-04-17T18:43:28.991Z,6.90
2023-04-17T18:45:56.044Z,6.80
2023-04-17T18:48:24.586Z,6.80
2023-04-17T18:50:51.604Z,6.70
2023-04-17T18:53:18.565Z,6.70
2023-04-17T18:55:45.608Z,6.70
2023-04-17T18:58:12.662Z,6.70
2023-04-17T19:00:39.690Z,6.60
2023-04-17T19:03:06.771Z,6.60
2023-04-17T19:05:33.850Z,6.60
2023-04-17T19:08:01.031Z,6.50
2023-04-17T19:10:28.054Z,6.50
2023-04-17T19:12:55.048Z,6.50
2023-04-17T19:15:22.131Z,6.40
2023-04-17T19:17:49.153Z,6.40
2023-04-17T19:20:16.908Z,6.40
2023-04-17T19:22:43.897Z,6.30
2023-04-17T19:25:11.115Z,6.30
2023-04-17T19:27:38.153Z,6.30
2023-04-17T19:30:07.133Z,6.30
2023-04-17T19:32:34.171Z,6.30
2023-04-17T19:35:01.186Z,6.30
2023-04-17T19:37:28.354Z,6.30
2023-04-17T19:39:56.746Z,6.20
2023-04-17T19:42:23.969Z,6.20
2023-04-17T19:44:51.076Z,6.20
2023-04-17T19:47:18.059Z,6.30
2023-04-17T19:49:45.186Z,6.20
2023-04-17T19:52:12.391Z,6.20
2023-04-17T19:54:39.493Z,6.20
2023-04-17T19:57:06.534Z,6.20
2023-04-17T19:59:33.536Z,6.20
2023-04-17T20:02:00.555Z,6.30
2023-04-17T20:04:28.164Z,6.20
2023-04-17T20:06:55.894Z,6.20
2023-04-17T20:09:22.983Z,6.20
2023-04-17T20:11:49.968Z,6.20
2023-04-17T20:14:19.596Z,6.20
2023-04-17T20:16:47.266Z,6.20
2023-04-17T20:19:14.516Z,6.20
2023-04-17T20:21:42.525Z,6.20
2023-04-17T20:24:09.453Z,6.10
2023-04-17T20:26:37.494Z,6.20
2023-04-17T20:29:04.632Z,6.20
2023-04-17T20:31:34.007Z,6.20
2023-04-17T20:34:01.022Z,6.10
2023-04-17T20:36:28.336Z,6.10
2023-04-17T20:38:55.314Z,6.10
2023-04-17T20:41:22.304Z,6.10
2023-04-17T20:44:01.916Z,6.10
2023-04-17T20:46:29.932Z,6.10
2023-04-17T20:48:56.953Z,6.10
2023-04-17T20:51:26.402Z,6.10
2023-04-17T20:53:54.557Z,6.10
2023-04-17T20:56:22.214Z,6.10
2023-04-17T20:58:49.373Z,6.10
2023-04-17T21:01:17.063Z,6.10
2023-04-17T21:03:44.389Z,6.00
2023-04-17T21:06:11.459Z,6.00
2023-04-17T21:08:38.583Z,6.00
2023-04-17T21:11:05.600Z,6.00
2023-04-17T21:13:32.637Z,5.90
2023-04-17T21:15:59.602Z,5.90
2023-04-17T21:18:26.609Z,5.90
2023-04-17T21:20:53.598Z,5.90
2023-04-17T21:23:20.612Z,5.90
2023-04-17T21:25:50.593Z,5.90
2023-04-17T21:28:17.702Z,5.90
2023-04-17T21:30:44.650Z,5.80
2023-04-17T21:33:11.668Z,5.80
2023-04-17T21:35:39.338Z,5.80
2023-04-17T21:38:06.348Z,5.80
2023-04-17T21:40:33.831Z,5.70
2023-04-17T21:43:01.844Z,5.70
2023-04-17T21:45:28.910Z,5.60
2023-04-17T21:47:56.136Z,5.60
2023-04-17T21:50:23.329Z,5.50
2023-04-17T21:52:50.321Z,5.50
2023-04-17T21:55:17.270Z,5.50
2023-04-17T21:57:44.994Z,5.40
2023-04-17T22:00:13.074Z,5.30
2023-04-17T22:02:40.226Z,5.40
2023-04-17T22:05:07.531Z,5.40
2023-04-17T22:07:47.371Z,5.40
2023-04-17T22:10:21.108Z,5.40
2023-04-17T22:12:48.105Z,5.50
2023-04-17T22:15:15.077Z,5.50
2023-04-17T22:17:42.109Z,5.50
2023-04-17T22:20:09.688Z,5.50
2023-04-17T22:22:36.708Z,5.60
2023-04-17T22:25:03.813Z,5.60
2023-04-17T22:27:30.743Z,5.60
2023-04-17T22:29:57.785Z,5.60
2023-04-17T22:32:24.825Z,5.60
2023-04-17T22:34:51.772Z,5.60
2023-04-17T22:37:18.872Z,5.60
2023-04-17T22:39:45.826Z,5.60
2023-04-17T22:42:12.799Z,5.60
2023-04-17T22:44:39.798Z,5.60
2023-04-17T22:47:06.786Z,5.60
2023-04-17T22:49:38.114Z,5.60
2023-04-17T22:52:06.333Z,5.60
2023-04-17T22:54:36.053Z,5.60
2023-04-17T22:57:03.043Z,5.60
2023-04-17T22:59:30.209Z,5.60
2023-04-17T23:01:57.433Z,5.60
2023-04-17T23:04:24.623Z,5.60
2023-04-17T23:06:51.674Z,5.60
2023-04-17T23:09:18.709Z,5.60
2023-04-17T23:11:45.631Z,5.60
2023-04-17T23:14:12.873Z,5.60
2023-04-17T23:16:40.045Z,5.60
2023-04-17T23:19:06.987Z,5.60
2023-04-17T23:21:33.986Z,5.60
2023-04-17T23:24:00.971Z,5.60
2023-04-17T23:26:27.912Z,5.60
2023-04-17T23:28:54.957Z,5.60
2023-04-17T23:31:21.966Z,5.50
2023-04-17T23:33:49.013Z,5.50
2023-04-17T23:36:16.030Z,5.50
2023-04-17T23:38:43.045Z,5.50
2023-04-17T23:41:09.987Z,5.50
2023-04-17T23:43:36.960Z,5.50
2023-04-17T23:46:04.034Z,5.50
2023-04-17T23:48:30.966Z,5.50
2023-04-17T23:50:57.932Z,5.50
2023-04-17T23:53:24.891Z,5.40
2023-04-17T23:55:51.985Z,5.40
2023-04-17T23:58:19.007Z,5.40
